Adventure of The Seas — C6SA3 — position and weather

sailwx.info

Track history (hours):
 
Tides and Currents Weather Stations Pressure Air Temp Water Temp Dewpoint Dewpoint Depression Visibility Wind Speed Wind Dir Waves Ship Positions

Adventure of The Seas

Operator: Royal Caribbean Cruises Ltd

Last reported at 2016-Jun-25 02:25 UTC. Time now 2016-Jun-25 05:07 UTC.
Position N 18°08' W 064°50'.

Type: Passenger vessel. MMSI: 311263000.

Date/timePositionNaut miles runAvg speedWind from/ knotsBaromVisibWave heightAir tempDewpointWater temp
2016-Jun-25 02:25N 18°08' W 064°50'  
2016-Jun-20 00:33N 17°41' W 063°07'7 7.0
2016-Jun-19 23:33N 17°48' W 063°07'8 7.0
2016-Jun-19 22:28N 17°55' W 063°06'5 5.8
2016-Jun-19 21:33N 18°00' W 063°05'1 0.1
2016-Jun-19 11:24N 18°00' W 063°03'1516.7
2016-Jun-19 10:30N 18°02' W 063°19'1918.5
2016-Jun-19 09:30N 18°04' W 063°38'7118.0
2016-Jun-19 05:33N 18°12' W 064°53'6817.0
2016-Jun-19 01:33N 18°34' W 066°01'8 8.3
2016-Jun-19 00:33N 18°28' W 066°06'0 0.0
2016-Jun-18 23:06N 18°28' W 066°06'0 0.0
2016-Jun-18 21:27N 18°28' W 066°06'0 0.0
2016-Jun-18 20:06N 18°28' W 066°06'0 0.0
2016-Jun-18 19:18N 18°28' W 066°06'0 0.0
2016-Jun-18 18:33N 18°28' W 066°06'0 0.0
2016-Jun-18 17:33N 18°28' W 066°06'0 0.0
2016-Jun-18 16:30N 18°28' W 066°06'0 0.0
2016-Jun-18 15:33N 18°28' W 066°06'0 0.0
2016-Jun-18 14:33N 18°28' W 066°06'0 0.0
2016-Jun-18 13:33N 18°28' W 066°06'0 0.0
2016-Jun-18 12:33N 18°28' W 066°06'0 0.0
2016-Jun-18 11:33N 18°28' W 066°06'0 0.0
2016-Jun-18 10:27N 18°28' W 066°06'0 0.0
2016-Jun-18 09:33N 18°28' W 066°06'7 7.0
2016-Jun-18 08:33N 18°34' W 066°08'  
Track history (hours):
 
Tides and Currents Weather Stations Pressure Air Temp Water Temp Dewpoint Dewpoint Depression Visibility Wind Speed Wind Dir Waves Ship Positions

Adventure of The Seas

Operator: Royal Caribbean Cruises Ltd

Last reported at 2016-Jun-25 02:25 UTC. Time now 2016-Jun-25 05:07 UTC.
Position N 18°08' W 064°50'.

Type: Passenger vessel. MMSI: 311263000.

Date/timePositionNaut miles runAvg speedWind from/ knotsBaromVisibWave heightAir tempDewpointWater temp
2016-Jun-25 02:25N 18°08' W 064°50'  
2016-Jun-20 00:33N 17°41' W 063°07'7 7.0
2016-Jun-19 23:33N 17°48' W 063°07'8 7.0
2016-Jun-19 22:28N 17°55' W 063°06'5 5.8
2016-Jun-19 21:33N 18°00' W 063°05'1 0.1
2016-Jun-19 11:24N 18°00' W 063°03'1516.7
2016-Jun-19 10:30N 18°02' W 063°19'1918.5
2016-Jun-19 09:30N 18°04' W 063°38'7118.0
2016-Jun-19 05:33N 18°12' W 064°53'6817.0
2016-Jun-19 01:33N 18°34' W 066°01'8 8.3
2016-Jun-19 00:33N 18°28' W 066°06'0 0.0
2016-Jun-18 23:06N 18°28' W 066°06'0 0.0
2016-Jun-18 21:27N 18°28' W 066°06'0 0.0
2016-Jun-18 20:06N 18°28' W 066°06'0 0.0
2016-Jun-18 19:18N 18°28' W 066°06'0 0.0
2016-Jun-18 18:33N 18°28' W 066°06'0 0.0
2016-Jun-18 17:33N 18°28' W 066°06'0 0.0
2016-Jun-18 16:30N 18°28' W 066°06'0 0.0
2016-Jun-18 15:33N 18°28' W 066°06'0 0.0
2016-Jun-18 14:33N 18°28' W 066°06'0 0.0
2016-Jun-18 13:33N 18°28' W 066°06'0 0.0
2016-Jun-18 12:33N 18°28' W 066°06'0 0.0
2016-Jun-18 11:33N 18°28' W 066°06'0 0.0
2016-Jun-18 10:27N 18°28' W 066°06'0 0.0
2016-Jun-18 09:33N 18°28' W 066°06'7 7.0
2016-Jun-18 08:33N 18°34' W 066°08'  

Dump ship's entire track history